createdAt,value
2022-08-05T00:00:21.980Z,79.86
2022-08-05T00:02:52.416Z,80.64
2022-08-05T00:06:02.133Z,79.96
2022-08-05T00:08:32.827Z,80.19
2022-08-05T00:11:23.932Z,80.09
2022-08-05T00:13:57.803Z,79.58
2022-08-05T00:16:35.443Z,79.97
2022-08-05T00:19:07.548Z,80.32
2022-08-05T00:21:37.483Z,80.43
2022-08-05T00:24:16.164Z,80.45
2022-08-05T00:26:50.865Z,81.13
2022-08-05T00:29:22.714Z,81.24
2022-08-05T00:32:12.634Z,80.06
2022-08-05T00:35:04.759Z,80.28
2022-08-05T00:37:35.856Z,79.67
2022-08-05T00:40:29.345Z,80.28
2022-08-05T00:43:00.704Z,80.64
2022-08-05T00:45:38.547Z,80.80
2022-08-05T00:48:10.756Z,80.39
2022-08-05T00:50:44.165Z,80.48
2022-08-05T00:54:00.820Z,80.40
2022-08-05T00:56:09.250Z,81.28
2022-08-05T00:58:42.406Z,80.36
2022-08-05T01:01:16.232Z,79.60
2022-08-05T01:04:14.175Z,80.62
2022-08-05T01:06:48.525Z,80.79
2022-08-05T01:09:19.973Z,81.34
2022-08-05T01:11:56.364Z,82.47
2022-08-05T01:14:33.385Z,82.67
2022-08-05T01:17:07.827Z,83.38
2022-08-05T01:20:00.754Z,84.25
2022-08-05T01:22:46.955Z,82.85
2022-08-05T01:25:53.204Z,83.72
2022-08-05T01:28:39.511Z,84.19
2022-08-05T01:31:13.619Z,85.80
2022-08-05T01:33:57.463Z,86.02
2022-08-05T01:36:34.093Z,85.03
2022-08-05T01:39:04.921Z,85.55
2022-08-05T01:41:40.331Z,85.42
2022-08-05T01:44:18.241Z,87.01
2022-08-05T01:46:49.074Z,87.53
2022-08-05T01:49:25.921Z,88.00
2022-08-05T01:52:17.882Z,88.17
2022-08-05T01:54:52.753Z,88.37
2022-08-05T01:58:10.297Z,88.86
2022-08-05T02:00:30.511Z,88.34
2022-08-05T02:03:06.732Z,86.71
2022-08-05T02:05:59.800Z,87.45
2022-08-05T02:08:33.368Z,87.85
2022-08-05T02:11:11.758Z,87.32
2022-08-05T02:13:53.674Z,87.69
2022-08-05T02:16:29.981Z,88.41
2022-08-05T02:19:07.232Z,87.98
2022-08-05T02:21:46.653Z,87.36
2022-08-05T02:24:23.454Z,87.08
2022-08-05T02:26:57.809Z,86.34
2022-08-05T02:29:59.724Z,86.80
2022-08-05T02:32:30.564Z,88.26
2022-08-05T02:35:13.685Z,87.61
2022-08-05T02:37:47.794Z,87.28
2022-08-05T02:40:26.121Z,86.63
2022-08-05T02:42:59.164Z,86.68
2022-08-05T02:45:51.520Z,87.30
2022-08-05T02:48:29.517Z,87.59
2022-08-05T02:51:01.453Z,87.00
2022-08-05T02:53:39.480Z,87.16
2022-08-05T02:56:16.098Z,86.71
2022-08-05T02:58:52.643Z,86.77
2022-08-05T03:01:26.986Z,87.57
2022-08-05T03:04:11.988Z,88.25
2022-08-05T03:06:55.815Z,90.10
2022-08-05T03:09:38.181Z,90.98
2022-08-05T03:12:09.726Z,91.60
2022-08-05T03:14:46.117Z,91.21
2022-08-05T03:17:17.776Z,90.89
2022-08-05T03:19:52.541Z,90.01
2022-08-05T03:22:31.888Z,89.60
2022-08-05T03:25:34.014Z,89.66
2022-08-05T03:27:59.980Z,89.39
2022-08-05T03:30:34.217Z,88.74
2022-08-05T03:33:05.945Z,88.54
2022-08-05T03:35:40.945Z,89.08
2022-08-05T03:38:14.412Z,89.15
2022-08-05T03:40:45.158Z,88.93
2022-08-05T03:44:08.433Z,88.12
2022-08-05T03:46:08.443Z,88.57
2022-08-05T03:48:38.161Z,88.68
2022-08-05T03:52:35.120Z,87.75
2022-08-05T03:55:51.092Z,88.67
2022-08-05T03:57:02.362Z,88.82
2022-08-05T03:59:54.982Z,88.37
2022-08-05T04:02:39.140Z,88.85
2022-08-05T04:05:19.736Z,88.42
2022-08-05T04:07:57.978Z,88.00
2022-08-05T04:10:37.136Z,88.58
2022-08-05T04:13:09.176Z,89.28
2022-08-05T04:15:39.455Z,90.37
2022-08-05T04:18:29.542Z,91.40
2022-08-05T04:21:00.876Z,91.03
2022-08-05T04:23:58.368Z,91.36
2022-08-05T04:26:23.669Z,92.08
2022-08-05T04:28:53.443Z,91.99
2022-08-05T04:31:23.513Z,92.17
2022-08-05T04:34:31.522Z,91.87
2022-08-05T04:36:50.052Z,91.09
2022-08-05T04:39:23.554Z,91.56
2022-08-05T04:41:53.783Z,90.33
2022-08-05T04:44:30.111Z,90.75
2022-08-05T04:47:09.589Z,90.87
2022-08-05T04:50:01.413Z,90.69
2022-08-05T04:52:33.362Z,90.65
2022-08-05T04:55:14.981Z,89.00
2022-08-05T04:57:51.664Z,88.71
2022-08-05T05:00:24.321Z,89.75
2022-08-05T05:02:54.492Z,89.20
2022-08-05T05:05:28.585Z,89.67
2022-08-05T05:08:03.301Z,89.37
2022-08-05T05:10:42.240Z,89.19
2022-08-05T05:13:25.792Z,89.68
2022-08-05T05:16:05.913Z,89.27
2022-08-05T05:18:37.928Z,88.71
2022-08-05T05:21:07.927Z,88.80
2022-08-05T05:24:04.100Z,87.74
2022-08-05T05:26:33.883Z,87.81
2022-08-05T05:29:14.313Z,87.27
2022-08-05T05:31:46.483Z,87.20
2022-08-05T05:34:21.168Z,86.31
2022-08-05T05:36:53.682Z,86.30
2022-08-05T05:39:24.943Z,87.06
2022-08-05T05:42:04.077Z,87.01
2022-08-05T05:44:37.543Z,85.82
2022-08-05T05:47:21.590Z,84.99
2022-08-05T05:50:01.450Z,85.35
2022-08-05T05:52:34.733Z,84.56
2022-08-05T05:55:13.887Z,85.34
2022-08-05T05:57:52.122Z,85.97
2022-08-05T06:00:31.490Z,87.00
2022-08-05T06:03:39.695Z,86.60
2022-08-05T06:05:55.669Z,86.60
2022-08-05T06:08:32.253Z,86.73
2022-08-05T06:11:04.050Z,86.21
2022-08-05T06:13:40.531Z,85.50
2022-08-05T06:16:30.493Z,85.38
2022-08-05T06:19:05.773Z,87.05
2022-08-05T06:21:38.842Z,86.80
2022-08-05T06:24:14.740Z,86.65
2022-08-05T06:26:51.571Z,87.67
2022-08-05T06:29:48.914Z,88.37
2022-08-05T06:32:21.468Z,88.60
2022-08-05T06:34:58.518Z,87.35
2022-08-05T06:37:57.728Z,86.96
2022-08-05T06:40:27.884Z,88.83
2022-08-05T06:43:02.326Z,90.25
2022-08-05T06:45:44.981Z,91.02
2022-08-05T06:48:52.920Z,91.38
2022-08-05T06:51:26.738Z,91.90
2022-08-05T06:54:01.926Z,91.00
2022-08-05T06:56:34.319Z,90.38
2022-08-05T06:59:08.323Z,89.72
2022-08-05T07:01:47.453Z,91.13
2022-08-05T07:04:23.977Z,91.77
2022-08-05T07:06:57.119Z,92.19
2022-08-05T07:09:32.192Z,93.67
2022-08-05T07:12:02.622Z,92.67
2022-08-05T07:14:46.109Z,94.19
2022-08-05T07:18:09.381Z,93.22
2022-08-05T07:20:32.301Z,92.93
2022-08-05T07:23:01.495Z,94.21
2022-08-05T07:25:55.229Z,94.49
2022-08-05T07:28:26.403Z,93.77
2022-08-05T07:30:56.431Z,93.38
2022-08-05T07:33:35.222Z,92.72
2022-08-05T07:36:20.814Z,93.87
2022-08-05T07:38:55.017Z,95.07
2022-08-05T07:42:13.252Z,94.06
2022-08-05T07:44:19.124Z,92.62
2022-08-05T07:46:51.726Z,92.21
2022-08-05T07:49:24.402Z,91.62
2022-08-05T07:51:55.347Z,91.38
2022-08-05T07:54:31.767Z,91.18
2022-08-05T07:57:22.579Z,92.24
2022-08-05T07:59:55.068Z,92.13
2022-08-05T08:02:30.803Z,90.99
2022-08-05T08:05:04.259Z,89.45
2022-08-05T08:07:39.459Z,89.07
2022-08-05T08:10:24.325Z,89.98
2022-08-05T08:12:58.494Z,88.38
2022-08-05T08:16:33.469Z,87.31
2022-08-05T08:18:21.025Z,85.60
2022-08-05T08:21:03.094Z,86.40
2022-08-05T08:24:01.457Z,85.56
2022-08-05T08:26:27.057Z,85.71
2022-08-05T08:29:02.243Z,85.13
2022-08-05T08:31:52.234Z,86.60
2022-08-05T08:34:30.157Z,85.23
2022-08-05T08:37:05.477Z,86.09
2022-08-05T08:39:37.607Z,85.50
2022-08-05T08:42:33.627Z,85.27
2022-08-05T08:45:25.162Z,85.04
2022-08-05T08:48:07.415Z,85.33
2022-08-05T08:51:03.334Z,84.94
2022-08-05T08:53:44.970Z,84.92
2022-08-05T08:56:15.228Z,84.42
2022-08-05T08:58:47.932Z,83.54
2022-08-05T09:01:19.669Z,83.80
2022-08-05T09:03:55.630Z,83.18
2022-08-05T09:06:30.907Z,84.75
2022-08-05T09:09:04.786Z,84.75
2022-08-05T09:11:53.760Z,84.62
2022-08-05T09:14:57.714Z,83.90
2022-08-05T09:17:40.891Z,84.00
2022-08-05T09:20:09.808Z,85.00
2022-08-05T09:23:19.810Z,83.89
2022-08-05T09:26:03.274Z,84.00
2022-08-05T09:28:35.926Z,82.55
2022-08-05T09:31:18.228Z,84.46
2022-08-05T09:34:01.804Z,84.43
2022-08-05T09:36:55.082Z,84.91
2022-08-05T09:39:44.971Z,83.49
2022-08-05T09:42:24.452Z,82.82
2022-08-05T09:45:17.260Z,84.20
2022-08-05T09:47:55.902Z,83.89
2022-08-05T09:50:44.086Z,85.14
2022-08-05T09:53:26.166Z,87.18
2022-08-05T09:56:13.402Z,87.23
2022-08-05T09:58:59.096Z,86.44
2022-08-05T10:01:32.578Z,88.36
2022-08-05T10:04:10.403Z,89.32
2022-08-05T10:06:55.059Z,90.19
2022-08-05T10:09:29.887Z,91.84
2022-08-05T10:12:30.530Z,88.90
2022-08-05T10:15:21.792Z,89.27
2022-08-05T10:18:16.926Z,88.68
2022-08-05T10:20:49.568Z,89.98
2022-08-05T10:23:55.591Z,87.78
2022-08-05T10:26:14.458Z,88.30
2022-08-05T10:28:46.582Z,88.62
2022-08-05T10:32:55.078Z,88.25
2022-08-05T10:34:10.804Z,88.84
2022-08-05T10:36:44.517Z,88.65
2022-08-05T10:39:25.170Z,89.62
2022-08-05T10:42:15.609Z,90.89
2022-08-05T10:44:49.594Z,90.22
2022-08-05T10:47:25.918Z,89.93
2022-08-05T10:50:20.268Z,89.42
2022-08-05T10:52:58.748Z,90.04
2022-08-05T10:56:03.832Z,89.80
2022-08-05T10:58:36.037Z,88.80
2022-08-05T11:01:15.129Z,87.93
2022-08-05T11:04:06.630Z,88.13
2022-08-05T11:06:39.077Z,88.50
2022-08-05T11:09:16.873Z,86.87
2022-08-05T11:11:52.725Z,87.12
2022-08-05T11:15:12.176Z,85.96
2022-08-05T11:18:07.343Z,86.31
2022-08-05T11:20:44.585Z,87.81
2022-08-05T11:24:03.783Z,85.88
2022-08-05T11:26:32.496Z,87.30
2022-08-05T11:29:13.805Z,87.94
2022-08-05T11:31:56.929Z,88.39
2022-08-05T11:34:51.393Z,86.22
2022-08-05T11:38:29.051Z,83.40
2022-08-05T11:41:35.103Z,83.62
2022-08-05T11:44:07.492Z,84.83
2022-08-05T11:47:10.224Z,83.54
2022-08-05T11:49:34.054Z,85.59
2022-08-05T11:52:11.084Z,84.86
2022-08-05T11:54:43.636Z,83.08
2022-08-05T11:57:25.467Z,82.73
2022-08-05T12:00:28.954Z,83.79
2022-08-05T12:03:01.089Z,83.89
2022-08-05T12:05:39.807Z,84.77
2022-08-05T12:08:11.748Z,84.01
2022-08-05T12:10:52.723Z,81.91
2022-08-05T12:13:48.048Z,81.10
2022-08-05T12:16:26.984Z,81.08
2022-08-05T12:18:57.249Z,81.38
2022-08-05T12:21:30.624Z,81.32
2022-08-05T12:24:04.855Z,79.11
2022-08-05T12:26:36.561Z,76.92
2022-08-05T12:29:15.883Z,76.48
2022-08-05T12:31:53.639Z,77.94
2022-08-05T12:34:28.443Z,80.15
2022-08-05T12:36:59.926Z,78.69
2022-08-05T12:39:34.470Z,78.55
2022-08-05T12:42:14.332Z,80.29
2022-08-05T12:44:48.625Z,79.50
2022-08-05T12:47:30.955Z,78.40
2022-08-05T12:50:06.231Z,77.45
2022-08-05T12:52:42.252Z,77.29
2022-08-05T12:55:23.619Z,74.60
2022-08-05T12:58:49.788Z,75.36
2022-08-05T13:02:02.287Z,74.17
2022-08-05T13:03:43.283Z,75.67
2022-08-05T13:06:19.954Z,76.69
2022-08-05T13:08:52.178Z,75.35
2022-08-05T13:11:46.969Z,75.42
2022-08-05T13:14:19.391Z,74.83
2022-08-05T13:16:56.420Z,74.21
2022-08-05T13:19:51.916Z,73.17
2022-08-05T13:22:29.277Z,71.97
2022-08-05T13:25:05.770Z,73.09
2022-08-05T13:27:41.513Z,74.04
2022-08-05T13:30:34.810Z,72.56
2022-08-05T13:33:06.545Z,71.29
2022-08-05T13:35:47.176Z,70.77
2022-08-05T13:38:30.296Z,72.69
2022-08-05T13:41:01.608Z,71.98
2022-08-05T13:43:45.446Z,71.52
2022-08-05T13:46:38.005Z,70.93
2022-08-05T13:49:16.039Z,69.66
2022-08-05T13:51:47.019Z,70.20
2022-08-05T13:54:21.178Z,69.15
2022-08-05T13:56:56.132Z,68.24
2022-08-05T13:59:27.001Z,69.56
2022-08-05T14:02:00.507Z,69.52
2022-08-05T14:04:50.085Z,68.02
2022-08-05T14:07:55.363Z,66.97
2022-08-05T14:10:18.849Z,67.66
2022-08-05T14:12:54.505Z,67.97
2022-08-05T14:16:06.161Z,68.43
2022-08-05T14:18:18.039Z,67.49
2022-08-05T14:20:52.921Z,67.69
2022-08-05T14:23:26.447Z,68.67
2022-08-05T14:25:59.723Z,68.96
2022-08-05T14:28:31.794Z,68.87
2022-08-05T14:31:02.496Z,69.64
2022-08-05T14:33:59.249Z,69.23
2022-08-05T14:36:26.101Z,69.94
2022-08-05T14:38:56.973Z,69.30
2022-08-05T14:41:27.641Z,69.30
2022-08-05T14:44:09.728Z,68.62
2022-08-05T14:46:48.814Z,68.40
2022-08-05T14:49:18.643Z,69.06
2022-08-05T14:51:52.208Z,67.92
2022-08-05T14:54:28.479Z,68.38
2022-08-05T14:57:05.124Z,67.43
2022-08-05T14:59:40.381Z,68.33
2022-08-05T15:02:15.748Z,66.67
2022-08-05T15:04:47.795Z,66.81
2022-08-05T15:08:11.432Z,68.71
2022-08-05T15:10:13.946Z,69.01
2022-08-05T15:13:00.350Z,68.61
2022-08-05T15:15:54.127Z,67.39
2022-08-05T15:18:25.098Z,66.97
2022-08-05T15:20:54.753Z,65.37
2022-08-05T15:23:27.044Z,65.99
2022-08-05T15:26:01.008Z,65.08
2022-08-05T15:28:32.777Z,64.26
2022-08-05T15:31:03.618Z,64.47
2022-08-05T15:34:05.867Z,63.55
2022-08-05T15:36:26.204Z,62.43
2022-08-05T15:40:58.793Z,62.92
2022-08-05T15:41:55.698Z,61.88
2022-08-05T15:44:27.602Z,60.93
2022-08-05T15:46:57.968Z,59.92
2022-08-05T15:49:48.298Z,59.16
2022-08-05T15:52:53.737Z,59.29
2022-08-05T15:55:16.616Z,59.40
2022-08-05T15:57:49.035Z,59.89
2022-08-05T16:00:26.443Z,59.65
2022-08-05T16:03:02.718Z,61.35
2022-08-05T16:05:32.984Z,60.65
2022-08-05T16:08:03.706Z,58.78
2022-08-05T16:10:37.479Z,59.31
2022-08-05T16:13:11.347Z,60.16
2022-08-05T16:15:41.128Z,58.09
2022-08-05T16:18:12.389Z,60.51
2022-08-05T16:20:44.133Z,58.42
2022-08-05T16:23:16.799Z,52.61
2022-08-05T16:25:49.913Z,49.88
2022-08-05T16:28:26.802Z,49.65
2022-08-05T16:30:58.647Z,49.48
2022-08-05T16:33:32.144Z,48.81
2022-08-05T16:36:13.145Z,47.92
2022-08-05T16:38:55.005Z,47.94
2022-08-05T16:42:27.781Z,49.91
2022-08-05T16:44:21.113Z,48.76
2022-08-05T16:46:56.337Z,46.55
2022-08-05T16:49:26.601Z,47.46
2022-08-05T16:51:59.035Z,48.06
2022-08-05T16:54:32.880Z,47.47
2022-08-05T16:57:14.873Z,48.18
2022-08-05T17:00:02.951Z,48.08
2022-08-05T17:02:38.470Z,47.22
2022-08-05T17:05:09.618Z,47.73
2022-08-05T17:07:44.380Z,48.58
2022-08-05T17:10:26.494Z,48.54
2022-08-05T17:13:02.823Z,48.88
2022-08-05T17:15:47.826Z,49.31
2022-08-05T17:18:19.168Z,48.30
2022-08-05T17:20:50.576Z,49.29
2022-08-05T17:24:05.229Z,48.66
2022-08-05T17:26:10.132Z,48.77
2022-08-05T17:28:44.112Z,48.93
2022-08-05T17:31:24.632Z,48.96
2022-08-05T17:34:06.912Z,48.95
2022-08-05T17:36:40.452Z,48.35
2022-08-05T17:39:24.494Z,48.78
2022-08-05T17:42:17.825Z,49.52
2022-08-05T17:44:53.866Z,49.67
2022-08-05T17:47:23.794Z,50.32
2022-08-05T17:50:03.650Z,49.55
2022-08-05T17:52:34.995Z,50.17
2022-08-05T17:55:27.208Z,49.67
2022-08-05T17:58:05.650Z,49.91
2022-08-05T18:00:40.911Z,50.24
2022-08-05T18:03:56.525Z,50.64
2022-08-05T18:06:11.863Z,50.38
2022-08-05T18:08:52.223Z,50.55
2022-08-05T18:11:32.873Z,50.98
2022-08-05T18:14:07.290Z,51.56
2022-08-05T18:16:51.293Z,51.37
2022-08-05T18:19:22.644Z,51.78
2022-08-05T18:22:08.226Z,52.56
2022-08-05T18:24:41.223Z,52.64
2022-08-05T18:27:12.325Z,52.59
2022-08-05T18:29:42.591Z,52.62
2022-08-05T18:32:28.353Z,52.15
2022-08-05T18:35:01.379Z,51.86
2022-08-05T18:37:34.592Z,51.67
2022-08-05T18:41:53.167Z,52.26
2022-08-05T18:43:03.857Z,51.88
2022-08-05T18:45:41.661Z,52.21
2022-08-05T18:48:30.906Z,52.13
2022-08-05T18:52:04.747Z,51.87
2022-08-05T18:54:09.728Z,52.06
2022-08-05T18:56:39.525Z,52.12
2022-08-05T18:59:41.858Z,51.32
2022-08-05T19:01:59.264Z,52.27
2022-08-05T19:04:37.457Z,52.46
2022-08-05T19:07:46.275Z,53.35
2022-08-05T19:10:18.949Z,52.65
2022-08-05T19:12:59.143Z,52.60
2022-08-05T19:15:57.036Z,52.33
2022-08-05T19:18:22.907Z,52.24
2022-08-05T19:20:56.538Z,52.65
2022-08-05T19:24:07.299Z,52.66
2022-08-05T19:26:22.485Z,53.00
2022-08-05T19:28:57.893Z,52.21
2022-08-05T19:31:30.825Z,52.30
2022-08-05T19:34:14.585Z,52.69
2022-08-05T19:36:51.307Z,52.53
2022-08-05T19:39:21.664Z,53.55
2022-08-05T19:42:07.671Z,53.66
2022-08-05T19:44:45.030Z,52.80
2022-08-05T19:47:16.649Z,52.45
2022-08-05T19:49:48.260Z,52.89
2022-08-05T19:52:31.043Z,53.33
2022-08-05T19:55:06.831Z,53.83
2022-08-05T19:58:06.734Z,53.63
2022-08-05T20:00:50.694Z,53.94
2022-08-05T20:03:24.031Z,53.32
2022-08-05T20:05:56.804Z,54.27
2022-08-05T20:08:31.316Z,54.10
2022-08-05T20:11:02.362Z,54.42
2022-08-05T20:13:58.291Z,54.97
2022-08-05T20:16:23.312Z,56.54
2022-08-05T20:18:55.223Z,56.64
2022-08-05T20:21:27.848Z,56.73
2022-08-05T20:24:06.680Z,57.19
2022-08-05T20:26:36.349Z,57.47
2022-08-05T20:29:07.783Z,57.68
2022-08-05T20:31:59.646Z,58.21
2022-08-05T20:34:29.851Z,58.71
2022-08-05T20:37:01.827Z,58.74
2022-08-05T20:39:36.374Z,58.83
2022-08-05T20:42:08.299Z,59.58
2022-08-05T20:44:41.531Z,59.43
2022-08-05T20:47:11.326Z,59.68
2022-08-05T20:49:41.096Z,60.63
2022-08-05T20:52:12.361Z,60.49
2022-08-05T20:55:15.988Z,60.68
2022-08-05T20:57:44.107Z,61.62
2022-08-05T21:00:40.030Z,61.43
2022-08-05T21:03:08.839Z,62.00
2022-08-05T21:05:54.412Z,62.11
2022-08-05T21:08:26.669Z,62.45
2022-08-05T21:11:10.315Z,62.95
2022-08-05T21:13:47.500Z,63.56
2022-08-05T21:16:30.153Z,64.46
2022-08-05T21:19:01.521Z,63.93
2022-08-05T21:21:39.078Z,64.08
2022-08-05T21:24:12.748Z,63.87
2022-08-05T21:26:57.983Z,63.94
2022-08-05T21:29:31.865Z,64.06
2022-08-05T21:32:03.091Z,64.72
2022-08-05T21:34:35.641Z,64.84
2022-08-05T21:37:08.226Z,64.57
2022-08-05T21:39:40.751Z,65.29
2022-08-05T21:42:43.802Z,65.34
2022-08-05T21:45:03.520Z,66.52
2022-08-05T21:47:56.348Z,66.38
2022-08-05T21:50:26.331Z,66.81
2022-08-05T21:52:58.819Z,66.47
2022-08-05T21:56:01.175Z,67.16
2022-08-05T21:58:24.888Z,67.81
2022-08-05T22:01:02.311Z,67.95
2022-08-05T22:03:48.588Z,68.06
2022-08-05T22:06:36.976Z,68.23
2022-08-05T22:09:14.025Z,68.26
2022-08-05T22:11:46.932Z,68.08
2022-08-05T22:14:34.667Z,67.88
2022-08-05T22:17:07.623Z,68.82
2022-08-05T22:20:00.696Z,68.89
2022-08-05T22:22:29.591Z,69.31
2022-08-05T22:25:17.807Z,69.25
2022-08-05T22:28:09.183Z,69.56
2022-08-05T22:30:56.693Z,69.02
2022-08-05T22:33:58.605Z,69.47
2022-08-05T22:36:18.714Z,69.57
2022-08-05T22:38:49.037Z,69.05
2022-08-05T22:42:05.401Z,69.51
2022-08-05T22:44:11.985Z,70.09
2022-08-05T22:46:45.182Z,69.52
2022-08-05T22:49:45.973Z,69.64
2022-08-05T22:52:12.529Z,70.04
2022-08-05T22:54:50.882Z,70.45
2022-08-05T22:57:20.576Z,70.22
2022-08-05T22:59:53.834Z,70.28
2022-08-05T23:02:29.363Z,70.18
2022-08-05T23:05:02.039Z,70.02
2022-08-05T23:07:44.709Z,70.08
2022-08-05T23:10:19.601Z,70.06
2022-08-05T23:12:51.629Z,69.80
2022-08-05T23:15:26.695Z,70.05
2022-08-05T23:18:00.970Z,69.85
2022-08-05T23:20:33.041Z,69.90
2022-08-05T23:23:06.020Z,69.80
2022-08-05T23:25:52.569Z,69.93
2022-08-05T23:28:28.685Z,70.40
2022-08-05T23:31:07.042Z,70.72
2022-08-05T23:34:03.805Z,70.74
2022-08-05T23:36:39.530Z,70.90
2022-08-05T23:39:17.500Z,70.78
2022-08-05T23:41:53.930Z,70.82
2022-08-05T23:44:28.010Z,70.84
2022-08-05T23:47:02.660Z,71.42
2022-08-05T23:49:47.465Z,71.61
2022-08-05T23:52:32.395Z,71.72
2022-08-05T23:55:09.229Z,71.63
2022-08-05T23:57:40.635Z,71.73
